Portada
METAR-TAF:

METAR-TAF

Aeropuertos :

Base Naval de Rota

Rota, España

latitud: 36-39N, longitud: 006-21W, altitud: 26 m

Observación

El informe se hizo hace 59 minutos, a las 16:00 UTC
Viento 13 kt del suroeste, variando entre sur y oeste
Temperatura 24°C
Humedad 69%
Presión 1016 hPa
Visibilidad 10 km o más
Escasas nubes a una altura de 1500 ft

METAR: LERT 151600Z 23013KT 190V260 9999 FEW015 24/18 Q1016 NOSIG

Hora: 18:59 (16:59 UTC)

Pronóstico

El informe se hizo hace 2 horas y 59 minutos, a las 14:00 UTC
Pronóstico válido del 15 a las 15 UTC al 15 a las 24 UTC
Viento 12 kt del sur-suroeste
Visibilidad 10 km o más
sin nubes por debajo de 1500 m y sin presencia de cumulonimbus.
Evolucionando progresivamente
del 15 a las 16 UTC al 15 a las 18 UTC
Viento 7 kt del oeste

TAF: LERT 151400Z 1515/1524 20012KT CAVOK BECMG 1516/1518 26007KT

Observaciones y pronósticos meteorológicos de más de 4000 aeropuertos (mensajes METAR y TAF).

Los puntos amarillos y rojos representan las estaciones disponibles.

Ponga el ratón en el punto deseado para ver el nombre de la estación.

Haga clic para ver las observaciones y los pronósticos meteorológicos.

Para cambiar el mapa : haga clic en los botones verdes con una cruz de color negro para hacer un zoom, en el botón verde con un guión para alejar o en las flechas verdes para mapas adyacentes.


METAR-TAF: